Latest Weather Observations for Carnarvon

IDW60801

Issued at 9:03 pm WST Friday 30 September 2016 (issued every 30 minutes, with the page automatically refreshed every 10 minutes)

About weather observations | Map of weather stations | Latest weather observations for WA | Other Formats
Station Details ID: 006011 Name: CARNARVON AIRPORT Lat: -24.89 Lon: 113.67 Height: 4.0 m
Data from the previous 72 hours. | See also: Recent months at Carnarvon
Date/Time
WST
Temp
°C
App
Temp
°C
Dew
Point
°C
Rel
Hum
%
Delta-T
°C
Wind Press
QNH
hPa
Press
MSL
hPa
Rain since
9am
mm
Dir  Spd
km/h
Gust
km/h
Spd
kts
Gust
kts
30/09:00pm 17.9 13.3 11.1 64 3.7 SSW 26 35 14 19 1012.6 1012.6 0.0
30/08:30pm 18.0 12.4 10.3 60 4.1 SSW 30 39 16 21 1012.2 - 0.0
30/08:00pm 18.1 12.8 9.8 58 4.4 SSW 28 35 15 19 1011.9 - 0.0
30/07:30pm 18.1 13.2 10.0 59 4.3 SSW 26 37 14 20 1011.5 - 0.0
30/07:00pm 18.3 12.8 9.3 55 4.7 SSW 28 37 15 20 1011.4 - 0.0
30/06:30pm 18.3 13.4 10.0 58 4.4 SSW 26 33 14 18 1011.2 - 0.0
30/06:00pm 18.8 13.0 9.5 54 4.9 SSW 30 35 16 19 1011.2 1011.2 0.0
30/05:30pm 19.3 13.5 9.5 53 5.2 SSW 30 39 16 21 1011.1 - 0.0
30/05:00pm 20.1 14.2 8.9 48 5.9 SSW 30 37 16 20 1011.2 - 0.0
30/04:30pm 20.7 14.9 9.5 48 6.0 SSW 30 35 16 19 1010.9 - 0.0
30/04:00pm 21.0 17.4 10.6 51 5.7 SSW 20 28 11 15 1011.0 - 0.0
30/03:30pm 20.9 17.5 11.3 54 5.3 SSW 20 28 11 15 1011.0 - 0.0
30/03:00pm 20.8 16.5 10.7 52 5.5 SSW 24 32 13 17 1011.1 1011.1 0.0
30/02:30pm 21.2 16.5 10.8 51 5.7 SSW 26 33 14 18 1011.2 - 0.0
30/02:00pm 20.8 16.6 11.0 53 5.4 SSW 24 30 13 16 1011.4 - 0.0
30/01:30pm 21.0 17.0 10.5 51 5.7 SSW 22 28 12 15 1011.8 - 0.0
30/01:00pm 20.4 16.2 9.8 50 5.7 SSW 22 30 12 16 1012.1 - 0.0
30/12:30pm 20.9 16.3 9.5 48 6.1 SSW 24 32 13 17 1012.3 - 0.0
30/12:00pm 21.0 15.8 8.9 46 6.4 SSW 26 32 14 17 1012.6 1012.6 0.0
30/11:30am 20.6 15.8 8.8 46 6.2 S 24 32 13 17 1012.9 - 0.0
30/11:00am 21.1 15.3 7.8 42 6.9 SSW 28 33 15 18 1013.4 - 0.0
30/10:30am 20.7 15.2 7.5 42 6.8 S 26 33 14 18 1013.6 - 0.0
30/10:00am 20.3 15.0 8.4 46 6.2 S 26 32 14 17 1013.8 - 0.0
30/09:30am 20.0 15.0 9.7 51 5.5 S 26 32 14 17 1013.8 - 0.0
30/09:00am 19.8 14.8 9.4 51 5.5 S 26 33 14 18 1013.9 1013.9 0.0
30/08:30am 19.0 14.2 8.8 51 5.3 S 24 33 13 18 1013.8 - 0.0
30/08:00am 18.0 15.0 10.5 61 4.0 SSE 17 22 9 12 1013.6 - 0.0
30/07:30am 16.8 13.5 10.8 67 3.2 SSE 19 28 10 15 1013.2 - 0.0
30/07:00am 15.3 13.2 11.0 75 2.3 SSE 13 19 7 10 1013.0 - 0.0
30/06:30am 13.2 10.8 10.1 81 1.6 SSE 13 15 7 8 1012.7 - 0.0
30/06:00am 13.6 11.2 10.1 79 1.8 SSE 13 15 7 8 1012.4 1012.4 0.0
30/05:30am 14.5 11.8 10.3 76 2.2 SSE 15 22 8 12 1012.2 - 0.0
30/05:00am 14.8 11.8 10.6 76 2.2 S 17 20 9 11 1012.0 - 0.0
30/04:30am 14.1 11.8 10.3 78 2.0 S 13 17 7 9 1012.1 - 0.0
30/04:00am 14.0 11.2 10.1 77 2.0 S 15 17 8 9 1012.0 - 0.0
30/03:30am 12.7 10.0 9.1 79 1.8 S 13 15 7 8 1012.0 - 0.0
30/03:00am 13.0 10.9 9.7 80 1.7 S 11 13 6 7 1011.9 1011.9 0.0
30/02:30am 14.4 11.7 10.4 77 2.1 SSE 15 17 8 9 1012.0 - 0.0
30/02:00am 15.6 11.9 10.3 70 2.8 S 20 26 11 14 1012.2 - 0.0
30/01:30am 16.3 11.8 10.0 66 3.3 S 24 33 13 18 1012.4 - 0.0
30/01:00am 16.3 12.0 10.7 69 3.0 S 24 30 13 16 1012.6 - 0.0
30/12:30am 16.0 12.5 10.3 69 3.0 S 19 24 10 13 1012.9 - 0.0
30/12:00am 16.3 12.5 9.8 65 3.4 S 20 28 11 15 1012.9 1012.9 0.0
 
Date/Time
WST
Temp
°C
App
Temp
°C
Dew
Point
°C
Rel
Hum
%
Delta-T
°C
Wind Press
QNH
hPa
Press
MSL
hPa
Rain since
9am
mm
Dir  Spd
km/h
Gust
km/h
Spd
kts
Gust
kts
29/11:30pm 16.5 12.3 9.6 63 3.6 S 22 30 12 16 1013.1 - 0.0
29/11:00pm 16.9 12.4 9.9 63 3.7 S 24 32 13 17 1013.1 - 0.0
29/10:30pm 17.4 12.8 9.8 61 4.0 S 24 30 13 16 1013.2 - 0.0
29/10:00pm 17.5 12.8 9.2 58 4.3 S 24 32 13 17 1013.2 - 0.0
29/09:30pm 18.1 12.6 9.1 55 4.7 S 28 37 15 20 1013.2 - 0.0
29/09:00pm 18.4 11.9 8.8 53 5.0 S 33 43 18 23 1013.1 1013.1 0.0
29/08:30pm 18.8 11.7 9.7 55 4.8 S 37 46 20 25 1013.1 - 0.0
29/08:00pm 19.0 13.1 10.5 58 4.6 S 32 43 17 23 1012.8 - 0.0
29/07:30pm 19.4 13.5 11.2 59 4.5 SSW 33 44 18 24 1012.7 - 0.0
29/07:00pm 19.6 14.5 11.8 60 4.3 SSW 30 37 16 20 1012.2 - 0.0
29/06:30pm 20.1 15.1 11.0 55 5.0 SSW 28 35 15 19 1011.8 - 0.0
29/06:00pm 21.0 15.8 8.9 46 6.4 SSW 26 35 14 19 1011.6 1011.6 0.0
29/05:30pm 21.4 16.1 9.7 47 6.3 SSW 28 35 15 19 1011.5 - 0.0
29/05:00pm 22.1 16.5 10.2 46 6.5 SSW 30 37 16 20 1011.2 - 0.0
29/04:30pm 22.2 16.8 9.6 44 6.8 SSW 28 37 15 20 1011.0 - 0.0
29/04:00pm 22.4 16.6 8.1 40 7.5 SSW 28 35 15 19 1011.1 - 0.0
29/03:30pm 22.3 16.3 10.2 46 6.6 SSW 32 37 17 20 1011.2 - 0.0
29/03:00pm 22.3 16.9 10.9 48 6.3 SSW 30 37 16 20 1011.5 1011.5 0.0
29/02:30pm 22.0 16.9 10.5 48 6.3 SSW 28 33 15 18 1012.0 - 0.0
29/02:00pm 22.5 16.8 9.8 44 6.9 SSW 30 35 16 19 1012.4 - 0.0
29/01:30pm 22.6 16.7 9.2 42 7.2 SSW 30 35 16 19 1012.8 - 0.0
29/01:00pm 22.3 16.8 9.2 43 7.0 SSW 28 35 15 19 1013.0 - 0.0
29/12:30pm 23.3 18.0 8.4 38 7.9 SSW 26 35 14 19 1013.2 - 0.0
29/12:00pm 22.3 16.8 7.7 39 7.6 SSW 26 32 14 17 1013.5 1013.5 0.0
29/11:30am 23.5 17.9 5.4 31 9.1 SSW 24 30 13 16 1013.9 - 0.0
29/11:00am 26.7 21.1 -10.4 8 14.3 SSE 13 19 7 10 1014.3 - 0.0
29/10:30am 25.5 19.7 -9.2 9 13.5 ESE 15 20 8 11 1014.6 - 0.0
29/10:00am 24.2 17.9 -9.8 9 12.9 E 17 24 9 13 1015.0 - 0.0
29/09:30am 22.5 15.7 -8.9 11 11.9 E 20 28 11 15 1015.4 - 0.0
29/09:00am 21.6 14.5 -8.6 12 11.4 E 22 30 12 16 1015.8 1015.8 0.0
29/08:30am 18.5 10.7 -8.1 15 9.8 E 26 35 14 19 1016.0 - 0.0
29/08:00am 17.5 10.2 -6.3 19 9.0 ESE 24 32 13 17 1015.9 - 0.0
29/07:30am 15.5 9.4 -4.1 25 7.6 SE 19 26 10 14 1015.9 - 0.0
29/07:00am 12.8 7.2 -2.6 34 6.0 SE 17 20 9 11 1015.9 - 0.0
29/06:30am 10.1 4.7 -1.5 44 4.5 SE 17 20 9 11 1015.8 - 0.0
29/06:00am 8.0 3.0 -1.2 52 3.5 SE 15 17 8 9 1015.7 1015.7 0.0
29/05:30am 8.7 4.6 0.1 55 3.4 SE 11 13 6 7 1015.6 - 0.0
29/05:00am 9.3 5.2 0.0 52 3.7 SE 11 13 6 7 1015.4 - 0.0
29/04:30am 10.1 4.9 0.2 50 4.0 SE 17 19 9 10 1015.0 - 0.0
29/04:00am 9.8 5.5 1.0 54 3.6 SE 13 17 7 9 1014.9 - 0.0
29/03:30am 11.2 6.6 1.4 51 4.1 SE 15 17 8 9 1015.0 - 0.0
29/03:00am 12.3 7.1 2.4 51 4.3 SE 19 20 10 11 1015.0 1015.0 0.0
29/02:30am 12.1 7.6 4.4 59 3.5 SE 17 20 9 11 1015.3 - 0.0
29/02:00am 12.2 8.3 7.2 71 2.4 SE 17 20 9 11 1015.7 - 0.0
29/01:30am 12.7 9.8 9.5 81 1.6 SSE 15 19 8 10 1015.9 - 0.0
29/01:00am 13.4 10.8 10.7 84 1.4 SSE 15 17 8 9 1016.3 - 0.0
29/12:30am 14.0 12.0 11.4 84 1.4 S 13 15 7 8 1016.6 - 0.0
29/12:00am 15.1 12.9 12.2 83 1.6 SSE 15 20 8 11 1016.6 1016.6 0.0
 
Date/Time
WST
Temp
°C
App
Temp
°C
Dew
Point
°C
Rel
Hum
%
Delta-T
°C
Wind Press
QNH
hPa
Press
MSL
hPa
Rain since
9am
mm
Dir  Spd
km/h
Gust
km/h
Spd
kts
Gust
kts
28/11:30pm 16.0 13.2 12.5 80 1.9 SSE 19 22 10 12 1016.7 - 0.0
28/11:00pm 16.1 13.1 12.5 79 2.0 S 20 24 11 13 1017.0 - 0.0
28/10:30pm 16.5 13.4 12.1 75 2.4 SSE 20 28 11 15 1017.0 - 0.0
28/10:00pm 16.7 13.1 11.9 73 2.6 S 22 30 12 16 1017.2 - 0.0
28/09:30pm 16.9 13.0 12.0 73 2.7 SSE 24 32 13 17 1017.0 - 0.0
28/09:00pm 17.4 12.6 11.7 69 3.1 S 28 35 15 19 1017.0 1017.0 0.0
28/08:30pm 18.0 13.9 11.4 65 3.6 S 24 33 13 18 1016.8 - 0.0
28/08:00pm 18.4 14.1 10.6 60 4.2 S 24 32 13 17 1016.6 - 0.0
28/07:30pm 18.5 14.0 8.6 52 5.1 S 22 30 12 16 1016.4 - 0.0
28/07:00pm 18.9 14.1 8.7 51 5.3 S 24 33 13 18 1016.4 - 0.0
28/06:30pm 19.4 13.5 7.7 46 6.0 S 28 35 15 19 1016.1 - 0.0
28/06:00pm 20.4 13.1 5.4 37 7.4 S 33 43 18 23 1015.9 1015.9 0.0
28/05:30pm 20.9 13.4 6.4 39 7.3 S 35 46 19 25 1016.0 - 0.0
28/05:00pm 21.2 13.3 6.3 38 7.5 S 37 46 20 25 1015.7 - 0.0
28/04:30pm 21.5 13.5 5.6 35 7.9 S 37 50 20 27 1015.6 - 0.0
28/04:00pm 21.7 14.3 6.8 38 7.6 S 35 44 19 24 1015.8 - 0.0
28/03:30pm 21.2 13.3 7.9 42 6.9 S 39 46 21 25 1016.0 - 0.0
28/03:00pm 21.5 13.2 7.8 41 7.1 S 41 52 22 28 1016.4 1016.4 0.0
28/02:30pm 20.7 12.4 7.7 43 6.7 S 41 52 22 28 1016.8 - 0.0
28/02:00pm 20.9 13.0 7.7 42 6.8 S 39 50 21 27 1017.0 - 0.0
28/01:30pm 20.9 13.2 7.2 41 7.0 S 37 48 20 26 1017.5 - 0.0
28/01:17pm 21.2 14.6 7.6 41 7.0 S 32 54 17 29 1017.6 - 0.0
28/01:00pm 22.8 16.7 2.9 27 9.5 SE 24 35 13 19 1017.9 - 0.0
28/12:38pm 23.2 15.9 0.0 21 10.5 SE 28 46 15 25 1018.3 - 0.0
28/12:30pm 22.2 15.0 0.6 24 9.8 SE 28 41 15 22 1018.5 - 0.0
28/12:00pm 22.4 14.5 1.0 24 9.8 SE 32 43 17 23 1019.0 1019.0 0.0
28/11:44am 22.0 13.9 1.0 25 9.6 SSE 33 52 18 28 1019.3 - 0.0
28/11:30am 21.6 13.8 1.6 26 9.2 SE 32 46 17 25 1019.4 - 0.0
28/11:00am 20.4 10.8 1.2 28 8.7 SE 41 54 22 29 1019.9 - 0.0
28/10:30am 19.6 10.9 2.1 31 8.0 SE 37 61 20 33 1020.2 - 0.0
28/10:17am 19.7 11.0 2.0 30 8.1 SSE 37 56 20 30 1020.4 - 0.0
28/10:00am 19.0 9.4 1.4 31 7.9 SE 41 54 22 29 1020.6 - 0.0
28/09:30am 18.0 8.0 2.0 34 7.2 SE 44 56 24 30 1020.7 - 0.0
28/09:00am 17.5 7.9 3.4 39 6.5 SE 43 56 23 30 1020.8 1020.8 0.0
28/08:30am 17.1 7.4 4.0 41 6.1 SE 44 59 24 32 1020.7 - 0.0
28/08:04am 16.5 7.5 4.3 44 5.7 SE 41 59 22 32 1020.5 - 0.0
28/08:00am 16.6 8.0 4.4 44 5.7 SE 39 54 21 29 1020.4 - 0.0
28/07:30am 15.9 8.7 4.8 47 5.2 SE 32 44 17 24 1020.2 - 0.0
28/07:00am 15.1 8.0 5.6 53 4.5 SE 32 41 17 22 1019.8 - 0.0
28/06:30am 14.4 7.7 5.7 56 4.1 SE 30 39 16 21 1019.2 - 0.0
28/06:00am 14.5 7.7 5.1 53 4.4 SE 30 43 16 23 1018.9 1018.9 0.0
28/05:30am 15.1 7.3 4.8 50 4.8 SE 35 48 19 26 1018.4 - 0.0
28/05:00am 15.4 8.1 4.4 48 5.1 SSE 32 43 17 23 1018.0 - 0.0
28/04:48am 15.9 8.6 5.4 49 5.0 SSE 33 52 18 28 1017.8 - 0.0
28/04:30am 16.4 8.8 5.8 49 5.1 SSE 35 50 19 27 1017.5 - 0.0
28/04:00am 16.5 9.4 8.2 58 4.2 SSE 35 54 19 29 1017.2 - 0.0
28/03:53am 16.5 9.4 8.2 58 4.2 SSE 35 54 19 29 1017.2 - 0.0
28/03:30am 16.3 10.5 10.9 70 2.9 SSE 32 41 17 22 1017.3 - 0.0
28/03:00am 16.6 11.3 11.2 70 2.9 SSE 30 46 16 25 1017.4 1017.4 0.0
28/02:30am 16.7 11.0 11.1 69 3.0 SSE 32 50 17 27 1017.3 - 0.0
28/02:25am 16.9 11.1 10.9 67 3.2 SSE 32 50 17 27 1017.3 - 0.0
28/02:00am 17.3 11.1 9.9 62 3.9 S 33 41 18 22 1017.4 - 0.0
28/01:43am 16.9 11.9 11.1 68 3.1 S 28 46 15 25 1017.4 - 0.0
28/01:30am 16.4 12.9 10.8 69 3.0 SSE 20 28 11 15 1017.7 - 0.0
28/01:00am 16.3 13.7 11.9 75 2.4 SSE 17 26 9 14 1017.9 - 0.0
28/12:30am 16.4 13.7 11.8 74 2.5 S 17 20 9 11 1017.8 - 0.0
28/12:00am 17.0 12.5 11.5 70 3.0 S 26 33 14 18 1017.9 1017.9 0.0
 
Date/Time
WST
Temp
°C
App
Temp
°C
Dew
Point
°C
Rel
Hum
%
Delta-T
°C
Wind Press
QNH
hPa
Press
MSL
hPa
Rain since
9am
mm
Dir  Spd
km/h
Gust
km/h
Spd
kts
Gust
kts
27/11:30pm 17.1 13.1 11.8 71 2.9 S 24 32 13 17 1018.0 - 0.0
27/11:00pm 17.6 13.2 11.7 68 3.2 S 26 32 14 17 1018.2 - 0.0
27/10:30pm 17.3 14.1 11.2 67 3.3 SSE 19 22 10 12 1018.3 - 0.0
27/10:00pm 17.4 14.0 10.4 63 3.7 SSE 19 24 10 13 1018.3 - 0.0
27/09:30pm 17.3 14.3 10.5 64 3.6 SSE 17 20 9 11 1018.4 - 0.0

Other Formats:

Comma delimited format used in spreadsheet applications
http://www.bom.gov.au/fwo/IDW60801/IDW60801.94300.axf

JavaScript Object Notation format (JSON) in row-major order
http://www.bom.gov.au/fwo/IDW60801/IDW60801.94300.json